Time;durP1;ratioP1;P1;durP2;ratioP2;P2;SDS_P1;SDS_P2;PMS_P1;PMS_P2;Temp;Humidity;BMP_temperature;BMP_pressure;BME280_temperature;BME280_humidity;BME280_pressure;Samples;Min_cycle;Max_cycle;Signal;HPM_P1;HPM_P2
2022/03/16 00:00:01;;;;;;;62.85;36.10;;;7.40;99.90;;;;;;5032241;28;20042;-67
2022/03/16 00:02:26;;;;;;;67.35;37.75;;;7.40;99.90;;;;;;5032349;28;20038;-67
2022/03/16 00:04:54;;;;;;;60.63;34.95;;;7.30;99.90;;;;;;5032128;28;20037;-67
2022/03/16 00:07:20;;;;;;;68.30;38.53;;;7.30;99.90;;;;;;5031834;28;20037;-67
2022/03/16 00:09:46;;;;;;;65.53;34.65;;;7.30;99.90;;;;;;5032244;28;20112;-68
2022/03/16 00:12:13;;;;;;;69.00;37.35;;;7.30;99.90;;;;;;5014361;28;20083;-68
2022/03/16 00:14:40;;;;;;;66.60;37.80;;;7.30;99.90;;;;;;5031950;28;20087;-68
2022/03/16 00:17:06;;;;;;;67.57;38.15;;;7.30;99.90;;;;;;5031626;28;20049;-67
2022/03/16 00:19:33;;;;;;;63.88;36.60;;;7.20;99.90;;;;;;5031997;28;20081;-67
2022/03/16 00:22:00;;;;;;;61.63;35.40;;;7.30;99.90;;;;;;5014110;28;20049;-67
2022/03/16 00:24:26;;;;;;;65.13;36.75;;;7.20;99.90;;;;;;4997677;28;20042;-68
2022/03/16 00:26:52;;;;;;;57.88;35.00;;;7.20;99.90;;;;;;5031410;28;20044;-68
2022/03/16 00:29:17;;;;;;;63.50;36.40;;;7.20;99.90;;;;;;5031947;28;20103;-68
2022/03/16 00:31:43;;;;;;;56.75;32.63;;;7.20;99.90;;;;;;5014081;28;20037;-68
2022/03/16 00:34:09;;;;;;;55.40;32.13;;;7.10;99.90;;;;;;5031236;28;20041;-68
2022/03/16 00:36:34;;;;;;;60.33;35.75;;;7.10;99.90;;;;;;5013922;28;20053;-68
2022/03/16 00:39:00;;;;;;;55.33;32.22;;;7.10;99.90;;;;;;4997412;28;20044;-68
2022/03/16 00:41:25;;;;;;;59.40;32.97;;;7.00;99.90;;;;;;5031771;28;20082;-67
2022/03/16 00:43:52;;;;;;;52.80;32.22;;;7.00;99.90;;;;;;5013878;28;20037;-67
2022/03/16 00:46:17;;;;;;;57.75;33.30;;;6.90;99.90;;;;;;5014644;28;20392;-67
2022/03/16 00:48:43;;;;;;;63.63;34.90;;;6.90;99.90;;;;;;5035717;28;20040;-67
2022/03/16 00:51:09;;;;;;;59.03;33.88;;;6.80;99.90;;;;;;5035602;28;20491;-67
2022/03/16 00:53:35;;;;;;;60.35;35.30;;;6.80;99.90;;;;;;5035325;28;20125;-67
2022/03/16 00:56:02;;;;;;;59.90;33.58;;;6.80;99.90;;;;;;5017612;28;20069;-67
2022/03/16 00:58:28;;;;;;;69.40;35.95;;;6.80;99.90;;;;;;5035426;28;20033;-67
2022/03/16 01:00:53;;;;;;;64.22;35.05;;;6.80;99.90;;;;;;5035295;28;20376;-67
2022/03/16 01:03:19;;;;;;;63.90;35.00;;;6.80;99.90;;;;;;5035289;28;20083;-67
2022/03/16 01:05:45;;;;;;;68.40;37.00;;;6.80;99.90;;;;;;5034958;28;20067;-68
2022/03/16 01:08:10;;;;;;;66.28;36.35;;;6.80;99.90;;;;;;5035234;28;20152;-68
2022/03/16 01:10:38;;;;;;;66.60;37.53;;;6.80;99.90;;;;;;5035533;28;20061;-67
2022/03/16 01:13:03;;;;;;;67.38;37.17;;;6.80;99.90;;;;;;5035150;28;20546;-67
2022/03/16 01:15:29;;;;;;;65.28;35.85;;;6.70;99.90;;;;;;5017138;28;20038;-68
2022/03/16 01:17:55;;;;;;;64.03;37.08;;;6.80;99.90;;;;;;5035211;28;20086;-67
2022/03/16 01:20:20;;;;;;;56.25;32.92;;;6.70;99.90;;;;;;5035309;28;20514;-68
2022/03/16 01:22:46;;;;;;;64.70;36.17;;;6.70;99.90;;;;;;5017270;28;20045;-68
2022/03/16 01:25:12;;;;;;;64.60;35.55;;;6.70;99.90;;;;;;5035219;28;20046;-67
2022/03/16 01:27:37;;;;;;;54.65;32.40;;;6.70;99.90;;;;;;5034932;28;20052;-68
2022/03/16 01:30:04;;;;;;;58.47;34.10;;;6.70;99.90;;;;;;5035012;28;20041;-68
2022/03/16 01:32:30;;;;;;;57.85;32.72;;;6.70;99.90;;;;;;5035094;28;20034;-67
2022/03/16 01:34:56;;;;;;;61.00;31.55;;;6.70;99.90;;;;;;5034732;28;20037;-68
2022/03/16 01:37:22;;;;;;;50.25;31.88;;;6.50;99.90;;;;;;5034465;28;20113;-68
2022/03/16 01:39:47;;;;;;;50.22;31.05;;;6.50;99.90;;;;;;5034843;28;20041;-68
2022/03/16 01:42:13;;;;;;;51.63;29.85;;;6.50;99.90;;;;;;5034899;28;20040;-68
2022/03/16 01:44:50;;;;;;;45.17;27.63;;;6.40;99.90;;;;;;5016803;28;20052;-68
2022/03/16 01:47:18;;;;;;;44.55;27.40;;;6.30;99.90;;;;;;5034292;28;20499;-68
2022/03/16 01:49:45;;;;;;;47.80;28.67;;;6.20;99.90;;;;;;5034560;28;20103;-68
2022/03/16 01:52:14;;;;;;;46.25;26.80;;;6.20;99.90;;;;;;5034773;28;20037;-68
2022/03/16 01:54:40;;;;;;;43.05;27.50;;;6.10;99.90;;;;;;5016431;28;20046;-67
2022/03/16 01:57:09;;;;;;;48.33;29.25;;;6.10;99.90;;;;;;5034179;28;20402;-67
2022/03/16 01:59:35;;;;;;;46.22;26.27;;;6.00;99.90;;;;;;5034464;28;20509;-68
2022/03/16 02:02:02;;;;;;;43.42;27.38;;;5.90;99.90;;;;;;5016718;28;20079;-67
2022/03/16 02:04:29;;;;;;;46.42;27.00;;;5.90;99.90;;;;;;5034115;28;20037;-67
2022/03/16 02:06:55;;;;;;;43.22;26.20;;;5.80;99.90;;;;;;5034021;28;20069;-67
2022/03/16 02:09:23;;;;;;;44.88;26.00;;;5.80;99.90;;;;;;5034440;28;20065;-67
2022/03/16 02:11:49;;;;;;;46.78;27.30;;;5.70;99.90;;;;;;5034276;28;20068;-68
2022/03/16 02:14:15;;;;;;;57.58;31.73;;;5.70;99.90;;;;;;5034497;28;20092;-68
2022/03/16 02:16:40;;;;;;;50.60;29.45;;;5.70;99.90;;;;;;5033872;28;20037;-67
2022/03/16 02:19:06;;;;;;;48.92;29.38;;;5.60;99.90;;;;;;5016274;28;20086;-67
2022/03/16 02:21:36;;;;;;;50.53;29.75;;;5.60;99.90;;;;;;5034187;28;20049;-67
2022/03/16 02:24:02;;;;;;;53.00;31.20;;;5.60;99.90;;;;;;5016037;28;20049;-67
2022/03/16 02:26:28;;;;;;;50.92;30.92;;;5.60;99.90;;;;;;5033691;28;20053;-67
2022/03/16 02:28:54;;;;;;;51.88;30.40;;;5.50;99.90;;;;;;5033920;28;20396;-67
2022/03/16 02:31:20;;;;;;;56.08;32.25;;;5.50;99.90;;;;;;5033897;28;20038;-67
2022/03/16 02:33:46;;;;;;;59.33;32.50;;;5.50;99.90;;;;;;5033506;28;20483;-67
2022/03/16 02:36:12;;;;;;;57.75;32.65;;;5.50;99.90;;;;;;5033614;28;20077;-68
2022/03/16 02:38:38;;;;;;;59.35;31.42;;;5.60;99.90;;;;;;5016206;28;20076;-67
2022/03/16 02:41:04;;;;;;;55.78;32.92;;;5.60;99.90;;;;;;5015884;28;20491;-67
2022/03/16 02:43:30;;;;;;;56.88;32.72;;;5.60;99.90;;;;;;5016026;28;20044;-67
2022/03/16 02:45:55;;;;;;;65.28;35.03;;;5.50;99.90;;;;;;5015323;28;20049;-67
2022/03/16 02:48:22;;;;;;;59.80;34.65;;;5.60;99.90;;;;;;5033420;28;20689;-67
2022/03/16 02:50:48;;;;;;;57.95;34.35;;;5.50;99.90;;;;;;5033592;28;20057;-67
2022/03/16 02:53:15;;;;;;;62.33;35.15;;;5.60;99.90;;;;;;5033477;28;20038;-67
2022/03/16 02:55:41;;;;;;;65.13;34.47;;;5.60;99.90;;;;;;5033135;28;20038;-67
2022/03/16 02:58:07;;;;;;;61.92;35.28;;;5.60;99.90;;;;;;5033277;28;20502;-67
2022/03/16 03:00:33;;;;;;;60.25;31.45;;;5.60;99.90;;;;;;5033015;28;20041;-67
2022/03/16 03:02:59;;;;;;;58.95;34.63;;;5.60;99.90;;;;;;5033002;28;20068;-68
2022/03/16 03:05:25;;;;;;;54.85;31.98;;;5.60;99.90;;;;;;5033128;28;20072;-68
2022/03/16 03:07:51;;;;;;;67.18;35.17;;;5.60;99.90;;;;;;5015165;28;20056;-68
2022/03/16 03:10:16;;;;;;;59.63;33.35;;;5.70;99.90;;;;;;5032375;28;20056;-67
2022/03/16 03:12:42;;;;;;;58.20;32.78;;;5.60;99.90;;;;;;5032936;28;20033;-67
2022/03/16 03:15:13;;;;;;;56.92;33.00;;;5.70;99.90;;;;;;5032681;28;20042;-67
2022/03/16 03:17:40;;;;;;;58.95;34.90;;;5.60;99.90;;;;;;5033049;28;20454;-68
2022/03/16 03:20:06;;;;;;;62.28;34.35;;;5.70;99.90;;;;;;5032977;28;20064;-68
2022/03/16 03:22:32;;;;;;;71.55;38.08;;;5.70;99.90;;;;;;5032702;28;20523;-67
2022/03/16 03:24:57;;;;;;;61.17;33.60;;;5.70;99.90;;;;;;5032737;28;20120;-67
2022/03/16 03:27:23;;;;;;;57.13;34.85;;;5.70;99.90;;;;;;5032324;28;20081;-67
2022/03/16 03:29:49;;;;;;;71.10;36.75;;;5.70;99.90;;;;;;5032454;28;20037;-67
2022/03/16 03:32:14;;;;;;;68.50;36.05;;;5.60;99.90;;;;;;5032902;28;20041;-67
2022/03/16 03:34:45;;;;;;;69.93;36.22;;;5.60;99.90;;;;;;5032174;28;20038;-67
2022/03/16 03:37:12;;;;;;;67.18;35.55;;;5.60;99.90;;;;;;5032394;28;20120;-68
2022/03/16 03:39:38;;;;;;;65.55;33.58;;;5.70;99.90;;;;;;5032493;28;20049;-67
2022/03/16 03:42:04;;;;;;;68.10;35.55;;;5.60;99.90;;;;;;5032534;28;20045;-67
2022/03/16 03:44:29;;;;;;;75.30;38.72;;;5.60;99.90;;;;;;5032013;28;20491;-67
2022/03/16 03:46:55;;;;;;;76.30;38.47;;;5.50;99.90;;;;;;5031959;28;20048;-67
2022/03/16 03:49:21;;;;;;;68.60;36.92;;;5.50;99.90;;;;;;5032330;28;20033;-67
2022/03/16 03:51:46;;;;;;;68.43;36.90;;;5.40;99.90;;;;;;5032374;28;20034;-67
2022/03/16 03:54:12;;;;;;;66.63;36.72;;;5.50;99.90;;;;;;5032174;28;20495;-67
2022/03/16 03:56:37;;;;;;;76.90;38.45;;;5.50;99.90;;;;;;5031665;28;20041;-67
2022/03/16 03:59:03;;;;;;;72.75;39.05;;;5.50;99.90;;;;;;5032081;28;20041;-67
2022/03/16 04:01:28;;;;;;;66.47;35.78;;;5.50;99.90;;;;;;5032192;28;20052;-67
2022/03/16 04:03:54;;;;;;;72.35;36.65;;;5.50;99.90;;;;;;5032067;28;20041;-67
2022/03/16 04:06:19;;;;;;;76.38;39.55;;;5.40;99.90;;;;;;5031649;28;20048;-67
2022/03/16 04:08:45;;;;;;;74.88;39.38;;;5.30;99.90;;;;;;5031968;28;20037;-67
2022/03/16 04:11:11;;;;;;;76.75;39.88;;;5.30;99.90;;;;;;5032026;28;20033;-67
2022/03/16 04:13:37;;;;;;;84.53;41.17;;;5.10;99.90;;;;;;5031623;28;20084;-67
2022/03/16 04:16:03;;;;;;;77.07;38.28;;;5.10;99.90;;;;;;5031087;28;20033;-67
2022/03/16 04:18:29;;;;;;;62.90;37.17;;;5.20;99.90;;;;;;5030866;28;20041;-68
2022/03/16 04:20:54;;;;;;;67.63;36.60;;;5.20;99.90;;;;;;5030181;28;20041;-68
2022/03/16 04:23:20;;;;;;;70.50;37.10;;;5.20;99.90;;;;;;5031533;28;20080;-68
2022/03/16 04:25:46;;;;;;;65.03;37.03;;;5.20;99.90;;;;;;5031608;28;20049;-68
2022/03/16 04:28:11;;;;;;;65.85;33.72;;;5.20;99.90;;;;;;5031599;28;20403;-68
2022/03/16 04:30:37;;;;;;;62.25;32.72;;;5.20;99.90;;;;;;5031969;28;20037;-68
2022/03/16 04:33:03;;;;;;;63.05;34.05;;;5.20;99.90;;;;;;5031846;28;20041;-68
2022/03/16 04:35:29;;;;;;;64.78;36.58;;;5.30;99.90;;;;;;5074977;22;20406;-69
2022/03/16 04:37:54;;;;;;;63.50;33.88;;;5.30;99.90;;;;;;5073495;28;20040;-69
2022/03/16 04:40:20;;;;;;;62.95;33.13;;;5.20;99.90;;;;;;5072545;28;20048;-68
2022/03/16 04:42:46;;;;;;;67.13;32.80;;;5.30;99.90;;;;;;5073634;28;20130;-69
2022/03/16 04:45:12;;;;;;;61.05;36.05;;;5.20;99.90;;;;;;5091830;28;20040;-69
2022/03/16 04:47:38;;;;;;;65.40;36.67;;;5.30;99.90;;;;;;5073139;28;20105;-69
2022/03/16 04:50:05;;;;;;;60.63;33.95;;;5.20;99.90;;;;;;5091721;28;20061;-68
2022/03/16 04:52:32;;;;;;;64.43;33.85;;;5.20;99.90;;;;;;5091715;28;20093;-68
2022/03/16 04:54:58;;;;;;;63.90;33.53;;;5.20;99.90;;;;;;5091785;28;20047;-68
2022/03/16 04:57:23;;;;;;;63.00;34.40;;;5.20;99.90;;;;;;5073470;28;20044;-68
2022/03/16 04:59:49;;;;;;;70.53;36.85;;;5.10;99.90;;;;;;5091793;28;20055;-68
2022/03/16 05:02:14;;;;;;;65.97;37.08;;;5.20;99.90;;;;;;5073450;28;20067;-68
2022/03/16 05:04:40;;;;;;;63.40;34.03;;;5.20;99.90;;;;;;5073482;28;20043;-68
2022/03/16 05:07:05;;;;;;;65.70;33.42;;;5.20;99.90;;;;;;5073190;28;20405;-68
2022/03/16 05:09:31;;;;;;;59.00;33.25;;;5.20;99.90;;;;;;5073357;28;20036;-68
2022/03/16 05:11:56;;;;;;;60.22;32.10;;;5.20;99.90;;;;;;5073404;28;20040;-68
2022/03/16 05:14:22;;;;;;;60.05;32.78;;;5.30;99.90;;;;;;5073340;28;20040;-68
2022/03/16 05:16:48;;;;;;;58.42;32.30;;;5.30;99.90;;;;;;5073238;28;20123;-68
2022/03/16 05:19:13;;;;;;;54.92;31.17;;;5.30;99.90;;;;;;5073364;28;20043;-68
2022/03/16 05:21:39;;;;;;;56.28;30.40;;;5.30;99.90;;;;;;5073612;28;20050;-68
2022/03/16 05:24:05;;;;;;;50.45;28.05;;;5.20;99.90;;;;;;5091498;28;20040;-68
2022/03/16 05:26:31;;;;;;;45.17;27.95;;;5.20;99.90;;;;;;5090909;28;20051;-69
2022/03/16 05:28:56;;;;;;;55.15;27.38;;;5.20;99.90;;;;;;5073459;28;20036;-68
2022/03/16 05:31:22;;;;;;;47.70;28.17;;;5.20;99.90;;;;;;5091341;28;20036;-68
2022/03/16 05:33:48;;;;;;;43.20;27.27;;;5.10;99.90;;;;;;5094811;28;20044;-68
2022/03/16 05:36:14;;;;;;;47.25;29.25;;;5.10;99.90;;;;;;5094693;28;20415;-68
2022/03/16 05:38:39;;;;;;;41.30;25.25;;;5.00;99.90;;;;;;5077132;28;20046;-68
2022/03/16 05:41:05;;;;;;;44.95;27.00;;;4.90;99.90;;;;;;5094920;28;20044;-68
2022/03/16 05:43:31;;;;;;;45.35;27.95;;;4.90;99.90;;;;;;5076760;28;20036;-68
2022/03/16 05:45:56;;;;;;;41.78;25.38;;;4.90;99.90;;;;;;5076468;28;20035;-69
2022/03/16 05:48:22;;;;;;;47.50;26.65;;;4.80;99.90;;;;;;5095076;28;20147;-69
2022/03/16 05:50:48;;;;;;;44.80;27.13;;;4.80;99.90;;;;;;5094800;28;20402;-68
2022/03/16 05:53:14;;;;;;;49.45;28.23;;;4.90;99.90;;;;;;5094742;28;20036;-69
2022/03/16 05:55:40;;;;;;;63.20;33.80;;;4.90;99.90;;;;;;5076214;28;20052;-68
2022/03/16 05:58:06;;;;;;;60.58;32.53;;;4.80;99.90;;;;;;5093857;28;20046;-68
2022/03/16 06:00:32;;;;;;;59.80;33.30;;;4.90;99.90;;;;;;5094868;28;20044;-69
2022/03/16 06:02:58;;;;;;;60.35;34.15;;;4.90;99.90;;;;;;5076335;28;20044;-68
2022/03/16 06:05:24;;;;;;;75.53;36.97;;;4.90;99.90;;;;;;5076375;28;20061;-68
2022/03/16 06:07:50;;;;;;;64.70;35.83;;;4.90;99.90;;;;;;5094462;28;20040;-68
2022/03/16 06:10:17;;;;;;;64.40;37.72;;;4.90;99.90;;;;;;5094409;28;20420;-68
2022/03/16 06:12:56;;;;;;;74.22;40.25;;;5.00;99.90;;;;;;5076197;28;20034;-69
2022/03/16 06:15:24;;;;;;;76.03;38.55;;;5.00;99.90;;;;;;5075865;28;20055;-68
2022/03/16 06:17:59;;;;;;;72.38;37.97;;;5.10;99.90;;;;;;5076163;28;20093;-68
2022/03/16 06:20:28;;;;;;;79.65;40.50;;;5.10;99.90;;;;;;5094355;28;20040;-68
2022/03/16 06:22:53;;;;;;;73.88;38.17;;;5.00;99.90;;;;;;5076282;28;20048;-68
2022/03/16 06:25:19;;;;;;;79.80;37.63;;;5.10;99.90;;;;;;5075653;28;20051;-68
2022/03/16 06:27:45;;;;;;;73.00;38.72;;;5.10;99.90;;;;;;5076019;28;20052;-68
2022/03/16 06:30:11;;;;;;;66.55;36.40;;;5.10;99.90;;;;;;5075998;28;20374;-68
2022/03/16 06:32:36;;;;;;;70.78;36.88;;;5.10;99.90;;;;;;5075646;28;20043;-68
2022/03/16 06:35:05;;;;;;;72.38;35.38;;;5.10;99.90;;;;;;5093758;28;20036;-68
2022/03/16 06:37:32;;;;;;;57.00;33.42;;;5.10;99.90;;;;;;5075755;28;20477;-68
2022/03/16 06:39:58;;;;;;;64.93;36.25;;;5.10;99.90;;;;;;5093960;28;20383;-68
2022/03/16 06:42:24;;;;;;;68.60;37.85;;;5.20;99.90;;;;;;5093832;28;20062;-68
2022/03/16 06:44:49;;;;;;;70.32;35.15;;;5.20;99.90;;;;;;5092851;28;20040;-68
2022/03/16 06:47:15;;;;;;;69.38;36.70;;;5.20;99.90;;;;;;5075295;28;20036;-68
2022/03/16 06:49:40;;;;;;;63.53;36.35;;;5.30;99.90;;;;;;5093792;28;20036;-68
2022/03/16 06:52:06;;;;;;;70.85;36.13;;;5.30;99.90;;;;;;5093557;28;20048;-68
2022/03/16 06:54:32;;;;;;;66.53;36.80;;;5.40;99.90;;;;;;5075433;28;20451;-68
2022/03/16 06:56:57;;;;;;;66.50;37.35;;;5.40;99.90;;;;;;5074904;28;20036;-68
2022/03/16 06:59:23;;;;;;;72.28;37.42;;;5.40;99.90;;;;;;5093299;28;20048;-68
2022/03/16 07:01:48;;;;;;;60.88;34.00;;;5.50;99.90;;;;;;5093555;28;20414;-70
2022/03/16 07:04:14;;;;;;;69.35;36.90;;;5.60;99.90;;;;;;5075314;28;20481;-71
2022/03/16 07:06:39;;;;;;;67.72;36.70;;;5.70;99.90;;;;;;5092983;28;20109;-73
2022/03/16 07:09:05;;;;;;;69.72;35.97;;;5.70;99.90;;;;;;5075338;28;20028;-70
2022/03/16 07:11:30;;;;;;;70.40;37.45;;;5.70;99.90;;;;;;5075133;28;20036;-70
2022/03/16 07:16:41;;;;;;;66.57;35.60;;;5.70;99.90;;;;;;5087827;28;20044;-70
2022/03/16 07:19:08;;;;;;;58.55;35.70;;;5.70;99.90;;;;;;5064841;28;20060;-70
2022/03/16 07:21:34;;;;;;;62.72;34.30;;;5.70;99.90;;;;;;5072354;28;20087;-70
2022/03/16 07:23:59;;;;;;;63.75;34.03;;;5.80;99.90;;;;;;5093197;28;20072;-70
2022/03/16 07:26:26;;;;;;;69.40;36.35;;;5.80;99.90;;;;;;5074553;28;20079;-70
2022/03/16 07:28:51;;;;;;;67.63;35.40;;;5.90;99.90;;;;;;5074735;28;20121;-68
2022/03/16 07:31:17;;;;;;;72.90;38.42;;;5.80;99.90;;;;;;5092941;28;20040;-67
2022/03/16 07:33:43;;;;;;;71.40;38.35;;;5.90;99.90;;;;;;5092770;28;20118;-68
2022/03/16 07:36:08;;;;;;;67.38;36.85;;;5.90;99.90;;;;;;5074125;28;20123;-68
2022/03/16 07:38:34;;;;;;;61.63;34.88;;;5.90;99.90;;;;;;5092704;28;20094;-68
2022/03/16 07:41:02;;;;;;;66.03;36.63;;;6.00;99.90;;;;;;5092652;28;20496;-68
2022/03/16 07:43:29;;;;;;;66.68;36.97;;;6.10;99.90;;;;;;5074739;28;20048;-68
2022/03/16 07:45:54;;;;;;;60.58;34.28;;;6.20;99.90;;;;;;5092173;28;20044;-69
2022/03/16 07:48:20;;;;;;;67.53;35.97;;;6.20;99.90;;;;;;5074377;28;20124;-68
2022/03/16 07:50:45;;;;;;;67.22;37.72;;;6.40;99.90;;;;;;5092137;28;20493;-70
2022/03/16 07:53:11;;;;;;;65.50;36.22;;;6.40;99.90;;;;;;5074197;28;20081;-68
2022/03/16 07:55:37;;;;;;;63.85;38.78;;;6.50;99.90;;;;;;5091752;28;20039;-68
2022/03/16 07:58:02;;;;;;;66.57;35.10;;;6.50;99.90;;;;;;5091964;28;20048;-68
2022/03/16 08:00:28;;;;;;;63.65;38.13;;;6.60;99.90;;;;;;5092268;28;20082;-68
2022/03/16 08:02:54;;;;;;;63.50;35.53;;;6.60;99.90;;;;;;5074058;28;20043;-68
2022/03/16 08:05:21;;;;;;;63.10;36.25;;;6.70;99.90;;;;;;5091819;28;20046;-68
2022/03/16 08:07:47;;;;;;;62.30;35.63;;;6.70;99.90;;;;;;5073928;28;20075;-68
2022/03/16 08:10:13;;;;;;;63.55;36.50;;;6.90;99.90;;;;;;5074266;28;20087;-68
2022/03/16 08:12:38;;;;;;;60.00;34.20;;;6.90;99.90;;;;;;5092187;28;20032;-68
2022/03/16 08:15:07;;;;;;;59.92;35.35;;;7.10;99.90;;;;;;5091961;28;20032;-70
2022/03/16 08:17:33;;;;;;;59.10;33.65;;;7.30;99.90;;;;;;5091573;28;20032;-70
2022/03/16 08:19:59;;;;;;;60.70;33.85;;;7.50;99.90;;;;;;5064255;28;20058;-70
2022/03/16 08:22:33;;;;;;;52.97;32.30;;;7.60;99.90;;;;;;5062892;28;20117;-71
2022/03/16 08:25:02;;;;;;;54.72;32.13;;;7.70;99.90;;;;;;5086038;28;20056;-70
2022/03/16 08:27:28;;;;;;;52.17;31.90;;;7.60;99.90;;;;;;5091659;28;20040;-70
2022/03/16 08:29:54;;;;;;;54.92;33.50;;;7.70;99.90;;;;;;5092092;28;20504;-70
2022/03/16 08:32:21;;;;;;;57.58;31.92;;;7.80;99.90;;;;;;5074001;28;20040;-71
2022/03/16 08:34:47;;;;;;;53.70;32.55;;;7.90;99.90;;;;;;5073825;28;20036;-70
2022/03/16 08:37:13;;;;;;;51.60;31.02;;;8.10;99.90;;;;;;5091619;28;20032;-70
2022/03/16 08:39:40;;;;;;;52.15;30.90;;;8.20;99.90;;;;;;5091801;28;20684;-70
2022/03/16 08:42:07;;;;;;;51.50;29.67;;;8.20;99.90;;;;;;5073745;28;20516;-71
2022/03/16 08:44:33;;;;;;;49.05;28.25;;;8.30;99.90;;;;;;5072042;28;20161;-70
2022/03/16 08:46:58;;;;;;;48.78;29.65;;;8.40;99.90;;;;;;5080680;28;20531;-70
2022/03/16 08:49:24;;;;;;;43.95;28.55;;;8.50;99.90;;;;;;5085848;28;20032;-71
2022/03/16 08:51:50;;;;;;;48.65;28.23;;;8.70;99.90;;;;;;5091779;28;20542;-70
2022/03/16 08:54:16;;;;;;;45.08;27.48;;;8.90;99.90;;;;;;5091435;28;20044;-70
2022/03/16 08:56:45;;;;;;;41.22;26.48;;;9.20;99.90;;;;;;5091371;28;20047;-71
2022/03/16 08:59:11;;;;;;;41.25;25.65;;;9.40;99.90;;;;;;5073297;28;20040;-71
2022/03/16 09:01:37;;;;;;;43.00;25.80;;;9.60;99.90;;;;;;5091645;28;20113;-71
2022/03/16 09:04:03;;;;;;;43.85;26.02;;;9.60;99.90;;;;;;5091634;28;20040;-71
2022/03/16 09:06:29;;;;;;;38.80;25.02;;;9.70;99.90;;;;;;5073259;28;20402;-71
2022/03/16 09:08:55;;;;;;;37.63;24.67;;;9.70;99.90;;;;;;5095575;28;20051;-71
2022/03/16 09:11:20;;;;;;;40.60;24.38;;;9.80;99.90;;;;;;5095555;28;20036;-71
2022/03/16 09:13:47;;;;;;;38.28;26.58;;;9.90;99.90;;;;;;5095662;28;20042;-71
2022/03/16 09:16:14;;;;;;;36.42;24.83;;;9.90;99.90;;;;;;5095179;28;20111;-71
2022/03/16 09:18:39;;;;;;;39.58;24.98;;;10.10;99.90;;;;;;5095612;28;20401;-71
2022/03/16 09:21:05;;;;;;;38.50;25.25;;;10.20;99.90;;;;;;5095364;28;20040;-71
2022/03/16 09:23:31;;;;;;;39.30;24.55;;;10.40;99.90;;;;;;5095460;28;20051;-70
2022/03/16 09:26:01;;;;;;;36.90;25.17;;;10.50;99.90;;;;;;5076519;28;20035;-73
2022/03/16 09:28:27;;;;;;;44.17;25.58;;;10.60;99.90;;;;;;5073736;28;20036;-71
2022/03/16 09:30:53;;;;;;;39.55;25.80;;;10.50;99.90;;;;;;5095407;28;20081;-71
2022/03/16 09:33:21;;;;;;;34.40;23.73;;;10.50;99.90;;;;;;5095214;28;20036;-71
2022/03/16 09:35:48;;;;;;;35.80;23.25;;;10.50;99.90;;;;;;5076265;28;20081;-71
2022/03/16 09:38:15;;;;;;;36.22;23.33;;;10.60;99.90;;;;;;5076759;28;20051;-71
2022/03/16 09:40:41;;;;;;;33.03;20.92;;;10.70;99.90;;;;;;5095118;28;20152;-71
2022/03/16 09:43:08;;;;;;;35.55;20.60;;;10.70;99.90;;;;;;5077047;28;20093;-71
2022/03/16 09:45:55;;;;;;;35.22;22.00;;;10.80;99.90;;;;;;5094740;28;20060;-71
2022/03/16 09:48:23;;;;;;;32.35;21.73;;;10.80;99.90;;;;;;5076727;28;20040;-72
2022/03/16 09:50:50;;;;;;;26.70;18.33;;;10.90;99.90;;;;;;5095085;28;20040;-71
2022/03/16 09:53:15;;;;;;;34.25;19.33;;;11.00;99.90;;;;;;5083863;28;20486;-71
2022/03/16 09:55:41;;;;;;;26.65;19.15;;;11.10;99.90;;;;;;5084429;28;20034;-70
2022/03/16 09:58:07;;;;;;;29.35;18.77;;;11.20;99.90;;;;;;5074330;28;20097;-73
2022/03/16 10:00:33;;;;;;;27.70;19.00;;;11.30;99.90;;;;;;5056580;28;20032;-71
2022/03/16 10:03:02;;;;;;;22.67;15.75;;;11.30;99.90;;;;;;5074573;28;20066;-70
2022/03/16 10:05:28;;;;;;;28.80;17.70;;;11.30;99.90;;;;;;5074024;28;20119;-70
2022/03/16 10:07:54;;;;;;;25.80;17.40;;;11.40;99.90;;;;;;5074274;28;20120;-70
2022/03/16 10:13:21;;;;;;;23.33;17.33;;;11.50;99.90;;;;;;5073097;28;20047;-71
2022/03/16 10:16:10;;;;;;;27.38;16.25;;;11.50;99.90;;;;;;5055585;28;20041;-72
2022/03/16 10:18:37;;;;;;;22.40;15.75;;;11.60;98.90;;;;;;5072483;28;20044;-71
2022/03/16 10:21:04;;;;;;;24.30;16.80;;;11.60;99.90;;;;;;5073805;28;20045;-71
2022/03/16 10:23:30;;;;;;;28.73;16.40;;;11.70;99.90;;;;;;5074205;28;20047;-71
2022/03/16 10:25:59;;;;;;;24.40;16.73;;;11.70;99.90;;;;;;5055506;28;20059;-72
2022/03/16 10:28:29;;;;;;;30.83;18.20;;;11.70;99.80;;;;;;5073824;28;20052;-71
2022/03/16 10:31:06;;;;;;;26.10;16.40;;;11.70;99.70;;;;;;5073641;28;20037;-71
2022/03/16 10:33:34;;;;;;;28.48;16.98;;;11.80;99.60;;;;;;5073838;28;20402;-71
2022/03/16 10:36:06;;;;;;;23.52;14.75;;;11.90;99.90;;;;;;5084963;22;20051;-69
2022/03/16 10:38:37;;;;;;;21.85;14.85;;;12.00;97.30;;;;;;5073210;28;20032;-69
2022/03/16 10:46:48;;;;;;;21.23;13.65;;;12.10;95.50;;;;;;5079179;28;20044;-69
2022/03/16 10:49:17;;;;;;;18.75;12.27;;;12.10;95.00;;;;;;5071780;28;20028;-69
2022/03/16 10:51:44;;;;;;;18.92;12.65;;;12.20;93.20;;;;;;5073435;28;20032;-68
2022/03/16 10:54:14;;;;;;;20.10;13.77;;;12.20;91.60;;;;;;5073133;28;20090;-68
2022/03/16 10:56:41;;;;;;;21.35;13.32;;;12.20;92.50;;;;;;5070369;28;20048;-69
2022/03/16 10:59:08;;;;;;;19.00;12.52;;;12.20;91.90;;;;;;5073175;28;20033;-68
2022/03/16 11:01:38;;;;;;;20.00;13.35;;;12.20;91.40;;;;;;5071876;28;20028;-68
2022/03/16 11:04:04;;;;;;;23.77;13.85;;;12.20;91.40;;;;;;5072331;28;20134;-68
2022/03/16 11:06:31;;;;;;;21.75;13.90;;;12.40;91.10;;;;;;5072472;28;20055;-68
2022/03/16 11:08:57;;;;;;;20.48;14.02;;;12.30;90.10;;;;;;5073170;28;20042;-68
2022/03/16 11:14:08;;;;;;;21.73;13.75;;;12.40;90.00;;;;;;5072971;28;20098;-68
2022/03/16 11:16:34;;;;;;;22.67;14.15;;;12.50;90.10;;;;;;5072154;28;20039;-69
2022/03/16 11:19:05;;;;;;;23.90;13.38;;;12.50;89.70;;;;;;5072891;28;20043;-68
2022/03/16 11:21:44;;;;;;;22.30;14.15;;;12.60;88.80;;;;;;5072833;28;20072;-68
2022/03/16 11:24:18;;;;;;;22.92;14.18;;;12.60;86.80;;;;;;5072810;28;20043;-68
2022/03/16 11:27:00;;;;;;;21.27;13.75;;;12.60;85.70;;;;;;5072202;28;20037;-68
2022/03/16 11:29:45;;;;;;;21.05;13.23;;;12.70;85.70;;;;;;5070794;28;20041;-68
2022/03/16 11:32:17;;;;;;;20.13;12.07;;;12.70;84.10;;;;;;5071401;28;20032;-69
2022/03/16 11:34:54;;;;;;;23.25;15.25;;;12.70;85.10;;;;;;5070125;28;20098;-69
2022/03/16 11:37:42;;;;;;;20.33;12.77;;;12.80;83.90;;;;;;5072126;28;20043;-69
2022/03/16 11:40:11;;;;;;;22.42;13.07;;;12.80;85.00;;;;;;5072726;28;20048;-68
2022/03/16 11:42:39;;;;;;;23.50;12.93;;;12.80;82.30;;;;;;5072518;28;20036;-68
2022/03/16 11:45:41;;;;;;;21.98;14.05;;;12.80;81.70;;;;;;5072284;28;20040;-68
2022/03/16 11:48:31;;;;;;;20.02;12.13;;;13.00;80.60;;;;;;5072343;28;20090;-68
2022/03/16 11:51:15;;;;;;;18.95;12.02;;;13.00;80.10;;;;;;5070993;28;20037;-68
2022/03/16 11:53:46;;;;;;;;;;;13.00;78.50;;;;;;5072727;28;20041;-68
2022/03/16 11:56:26;;;;;;;22.83;13.45;;;13.00;77.70;;;;;;5070539;28;19920;-68
2022/03/16 11:59:06;;;;;;;20.13;13.02;;;13.10;77.90;;;;;;5072348;28;20040;-68
2022/03/16 12:01:39;;;;;;;22.35;12.93;;;13.10;76.00;;;;;;5072227;28;20514;-68
2022/03/16 12:04:12;;;;;;;;;;;13.10;78.00;;;;;;5072553;28;20040;-68
2022/03/16 12:07:04;;;;;;;17.95;11.98;;;13.10;75.80;;;;;;5071624;28;19931;-68
2022/03/16 12:09:38;;;;;;;17.95;11.88;;;13.20;74.90;;;;;;5072229;28;20036;-69
2022/03/16 12:15:14;;;;;;;16.77;11.30;;;13.20;73.90;;;;;;5071563;28;20413;-68
2022/03/16 12:18:01;;;;;;;19.42;11.95;;;13.20;72.50;;;;;;5071513;28;20417;-68
2022/03/16 12:20:30;;;;;;;18.73;10.70;;;13.20;71.90;;;;;;5071506;28;20080;-68
2022/03/16 12:22:58;;;;;;;18.08;11.98;;;13.20;73.30;;;;;;5070617;28;20493;-68
2022/03/16 12:25:26;;;;;;;17.25;11.90;;;13.20;74.20;;;;;;5071650;28;20118;-68
2022/03/16 12:30:42;;;;;;;14.95;10.65;;;13.30;73.00;;;;;;5071493;28;20131;-68
2022/03/16 12:33:19;;;;;;;16.63;11.05;;;13.30;72.10;;;;;;5071915;28;20041;-68
2022/03/16 12:35:45;;;;;;;18.67;11.13;;;13.40;70.60;;;;;;5071391;28;20041;-68
2022/03/16 12:38:11;;;;;;;19.67;12.70;;;13.40;71.70;;;;;;5071754;28;20044;-68
2022/03/16 12:43:28;;;;;;;16.85;11.38;;;13.40;69.80;;;;;;5071185;28;20052;-68
2022/03/16 12:46:07;;;;;;;15.48;10.13;;;13.50;70.10;;;;;;5071496;28;20052;-68
2022/03/16 12:48:36;;;;;;;18.50;11.10;;;13.50;69.00;;;;;;5071666;28;20115;-68
2022/03/16 12:51:02;;;;;;;16.75;11.13;;;13.50;68.30;;;;;;5071538;28;20037;-68
2022/03/16 12:53:44;;;;;;;16.60;10.73;;;13.50;69.50;;;;;;5071614;28;20028;-68
2022/03/16 12:56:19;;;;;;;19.70;11.10;;;13.50;69.30;;;;;;5071369;28;20079;-68
2022/03/16 12:58:52;;;;;;;14.95;9.98;;;13.70;69.90;;;;;;5071642;28;20033;-68